Time;durP1;ratioP1;P1;durP2;ratioP2;P2;SDS_P1;SDS_P2;PMS_P1;PMS_P2;Temp;Humidity;BMP_temperature;BMP_pressure;BME280_temperature;BME280_humidity;BME280_pressure;Samples;Min_cycle;Max_cycle;Signal;HPM_P1;HPM_P2
2022/02/21 00:02:25;;;;;;;;;1.00;1.00;;;;;14.48;44.48;97199.31;4941954;28;103739;-75
2022/02/21 00:04:52;;;;;;;;;1.00;1.00;;;;;14.47;44.47;97178.63;4953970;28;102763;-75
2022/02/21 00:07:19;;;;;;;;;2.00;2.00;;;;;14.46;44.18;97177.78;4951785;28;103665;-76
2022/02/21 00:09:46;;;;;;;;;2.00;2.00;;;;;14.45;43.81;97169.91;4938944;28;102627;-75
2022/02/21 00:12:14;;;;;;;;;1.00;1.00;;;;;14.46;44.09;97168.81;4960993;28;102473;-75
2022/02/21 00:14:41;;;;;;;;;1.25;1.00;;;;;14.44;44.37;97162.81;4941204;28;102518;-75
2022/02/21 00:17:08;;;;;;;;;1.00;1.00;;;;;14.44;44.10;97163.66;4944128;28;104048;-75
2022/02/21 00:19:35;;;;;;;;;1.00;1.00;;;;;14.42;43.71;97157.63;4936211;28;102520;-76
2022/02/21 00:22:02;;;;;;;;;2.00;1.00;;;;;14.43;44.18;97153.84;4932454;28;102557;-76
2022/02/21 00:24:29;;;;;;;;;1.75;1.00;;;;;14.43;44.23;97147.59;4952584;28;105294;-75
2022/02/21 00:26:56;;;;;;;;;1.00;1.00;;;;;14.42;43.43;97144.03;4943396;28;102821;-75
2022/02/21 00:29:23;;;;;;;;;2.25;2.00;;;;;14.43;43.41;97137.53;4956344;28;102692;-75
2022/02/21 00:31:50;;;;;;;;;1.75;1.75;;;;;14.43;43.56;97140.25;4951792;28;102492;-76
2022/02/21 00:34:17;;;;;;;;;2.00;1.25;;;;;14.43;43.79;97128.53;4957680;28;102168;-75
2022/02/21 00:36:44;;;;;;;;;1.00;1.00;;;;;14.43;43.64;97123.09;4951873;28;105420;-75
2022/02/21 00:39:11;;;;;;;;;2.00;1.50;;;;;14.42;43.55;97122.28;4949158;28;103203;-75
2022/02/21 00:41:38;;;;;;;;;2.00;1.00;;;;;14.40;43.73;97099.16;4963989;28;102539;-76
2022/02/21 00:44:06;;;;;;;;;1.50;1.00;;;;;14.42;43.54;97118.75;4943986;28;102459;-76
2022/02/21 00:46:33;;;;;;;;;2.00;2.00;;;;;14.41;43.97;97092.66;4955302;28;104392;-76
2022/02/21 00:49:01;;;;;;;;;2.00;2.00;;;;;14.41;44.11;97089.94;4939441;28;102550;-76
2022/02/21 00:51:28;;;;;;;;;1.50;1.50;;;;;14.40;43.54;97096.44;4952682;28;102712;-76
2022/02/21 00:53:55;;;;;;;;;2.25;1.25;;;;;14.40;43.97;97085.56;4955193;28;102526;-76
2022/02/21 00:56:22;;;;;;;;;1.75;1.00;;;;;14.40;43.87;97091.00;4936849;28;103276;-75
2022/02/21 00:58:49;;;;;;;;;2.00;2.00;;;;;14.38;43.64;97083.09;4935356;28;103036;-75
2022/02/21 01:01:16;;;;;;;;;1.00;1.00;;;;;14.38;43.95;97080.38;4922212;28;102566;-76
2022/02/21 01:03:43;;;;;;;;;1.00;1.00;;;;;14.38;44.11;97069.50;4924644;28;103902;-75
2022/02/21 01:06:11;;;;;;;;;1.50;1.50;;;;;14.38;43.10;97049.66;4924652;28;104009;-75
2022/02/21 01:08:38;;;;;;;;;0.25;0.25;;;;;14.38;43.76;97050.47;4918044;28;102598;-75
2022/02/21 01:11:05;;;;;;;;;1.00;1.00;;;;;14.37;44.07;97050.72;4952563;28;102444;-75
2022/02/21 01:13:32;;;;;;;;;1.25;1.25;;;;;14.37;43.57;97037.13;4950030;28;106022;-75
2022/02/21 01:16:00;;;;;;;;;1.00;1.00;;;;;14.38;44.23;97033.34;4949568;28;104261;-75
2022/02/21 01:18:27;;;;;;;;;1.00;0.75;;;;;14.37;43.60;97023.53;4953462;28;103233;-76
2022/02/21 01:20:54;;;;;;;;;1.00;0.75;;;;;14.37;43.51;97018.09;4939633;28;102674;-75
2022/02/21 01:23:21;;;;;;;;;2.00;1.00;;;;;14.37;43.40;97021.63;4938496;28;102999;-75
2022/02/21 01:25:48;;;;;;;;;1.00;1.00;;;;;14.36;43.38;97030.91;4958246;28;104468;-76
2022/02/21 01:28:15;;;;;;;;;0.25;0.25;;;;;14.36;44.01;97013.75;4951996;28;102867;-75
2022/02/21 01:30:43;;;;;;;;;1.50;1.00;;;;;14.35;43.24;97007.47;4939098;28;102613;-75
2022/02/21 01:33:10;;;;;;;;;1.00;1.00;;;;;14.36;43.44;97005.59;4951794;28;102090;-75
2022/02/21 01:35:37;;;;;;;;;0.00;0.00;;;;;14.35;44.02;97003.94;4959448;28;104156;-75
2022/02/21 01:38:04;;;;;;;;;1.00;1.00;;;;;14.35;43.99;96990.34;4950854;28;102748;-75
2022/02/21 01:40:31;;;;;;;;;1.00;0.75;;;;;14.32;43.80;96987.03;4950562;28;102429;-75
2022/02/21 01:42:58;;;;;;;;;1.50;1.50;;;;;14.33;43.44;96987.88;4957464;28;102344;-75
2022/02/21 01:45:25;;;;;;;;;1.25;1.00;;;;;14.32;43.46;96986.22;4922715;28;104058;-75
2022/02/21 01:47:52;;;;;;;;;1.00;1.00;;;;;14.32;43.18;96981.59;4939316;28;102494;-75
2022/02/21 01:50:19;;;;;;;;;1.00;1.00;;;;;14.34;43.79;96975.09;4938482;28;103897;-76
2022/02/21 01:52:47;;;;;;;;;1.00;1.00;;;;;14.32;43.31;96965.28;4934486;28;103609;-75
2022/02/21 01:55:14;;;;;;;;;1.00;1.00;;;;;14.34;43.14;96961.50;4953506;28;104354;-75
2022/02/21 01:57:42;;;;;;;;;1.00;1.00;;;;;14.32;43.75;96959.03;4961674;28;102532;-76
2022/02/21 02:00:09;;;;;;;;;1.25;1.00;;;;;14.34;43.26;96947.91;4936191;28;102524;-76
2022/02/21 02:02:36;;;;;;;;;1.50;1.00;;;;;14.32;43.74;96954.41;4928352;28;102590;-75
2022/02/21 02:05:04;;;;;;;;;1.00;0.50;;;;;14.34;43.54;96953.34;4933101;28;104082;-75
2022/02/21 02:07:31;;;;;;;;;1.00;1.00;;;;;14.32;43.16;96957.13;4933844;28;103384;-75
2022/02/21 02:09:58;;;;;;;;;1.00;1.00;;;;;14.32;43.31;96948.97;4918368;28;102778;-75
2022/02/21 02:12:25;;;;;;;;;0.00;0.00;;;;;14.30;43.37;96929.41;4953265;28;103842;-75
2022/02/21 02:14:52;;;;;;;;;0.25;0.25;;;;;14.29;43.94;96933.22;4941363;28;103934;-75
2022/02/21 02:17:19;;;;;;;;;0.00;0.00;;;;;14.28;44.22;96930.75;4946273;28;102589;-75
2022/02/21 02:19:47;;;;;;;;;0.25;0.25;;;;;14.29;42.92;96935.94;4954177;28;103805;-75
2022/02/21 02:22:22;;;;;;;;;0.50;0.25;;;;;14.29;43.13;96927.78;4946194;28;102316;-75
2022/02/21 02:24:51;;;;;;;;;0.00;0.00;;;;;14.29;43.77;96922.34;4943954;28;108643;-76
2022/02/21 02:27:18;;;;;;;;;1.00;0.25;;;;;14.28;43.34;96915.25;4957800;28;102347;-75
2022/02/21 02:29:51;;;;;;;;;0.50;0.50;;;;;14.27;43.26;96897.28;4956871;28;103625;-75
2022/02/21 02:32:19;;;;;;;;;0.00;0.00;;;;;14.27;43.70;96907.38;4953663;28;102606;-75
2022/02/21 02:34:47;;;;;;;;;1.00;1.00;;;;;14.27;43.11;96901.94;4937096;28;104057;-75
2022/02/21 02:37:15;;;;;;;;;1.50;1.00;;;;;14.27;43.80;96900.03;4926512;28;103328;-76
2022/02/21 02:39:42;;;;;;;;;0.75;0.00;;;;;14.27;43.68;96897.28;4922272;28;102743;-75
2022/02/21 02:42:09;;;;;;;;;1.00;1.00;;;;;14.26;43.72;96890.25;4928334;28;103641;-75
2022/02/21 02:44:36;;;;;;;;;1.25;1.00;;;;;14.27;43.83;96891.88;4950590;28;104298;-75
2022/02/21 02:47:06;;;;;;;;;0.00;0.00;;;;;14.26;43.45;96884.81;4928974;28;102808;-75
2022/02/21 02:49:33;;;;;;;;;1.00;0.00;;;;;14.26;43.65;96882.09;4939877;28;102275;-75
2022/02/21 02:52:01;;;;;;;;;0.00;0.00;;;;;14.23;43.24;96879.88;4928161;28;102343;-75
2022/02/21 02:54:28;;;;;;;;;0.25;0.25;;;;;14.25;43.72;96871.47;4937737;28;104117;-75
2022/02/21 02:56:55;;;;;;;;;1.00;1.00;;;;;14.25;43.99;96871.47;4940244;28;102248;-75
2022/02/21 02:59:25;;;;;;;;;0.00;0.00;;;;;14.25;43.85;96869.59;4929567;28;102523;-76
2022/02/21 03:01:52;;;;;;;;;0.00;0.00;;;;;14.25;43.87;96866.84;4932538;28;102621;-75
2022/02/21 03:04:19;;;;;;;;;0.00;0.00;;;;;14.23;43.01;96863.56;4938761;28;104535;-75
2022/02/21 03:06:46;;;;;;;;;1.25;0.00;;;;;14.23;43.64;96870.91;4941050;28;102690;-75
2022/02/21 03:09:13;;;;;;;;;0.25;0.25;;;;;14.21;43.38;96857.59;4941512;28;103089;-75
2022/02/21 03:11:40;;;;;;;;;0.00;0.00;;;;;14.20;43.45;96852.44;4938369;28;103074;-76
2022/02/21 03:14:07;;;;;;;;;0.00;0.00;;;;;14.22;43.38;96855.72;4932370;28;103849;-75
2022/02/21 03:16:34;;;;;;;;;0.00;0.00;;;;;14.20;43.46;96853.25;4939827;28;102489;-75
2022/02/21 03:19:01;;;;;;;;;0.25;0.25;;;;;14.21;43.27;96849.44;4936331;28;102666;-75
2022/02/21 03:21:28;;;;;;;;;0.50;0.00;;;;;14.18;43.43;96844.53;4941092;28;102699;-75
2022/02/21 03:23:55;;;;;;;;;0.00;0.00;;;;;14.22;43.31;96839.41;4934857;28;104247;-75
2022/02/21 03:26:22;;;;;;;;;0.00;0.00;;;;;14.20;43.24;96831.50;4918964;28;103919;-75
2022/02/21 03:28:49;;;;;;;;;0.00;0.00;;;;;14.20;43.41;96836.94;4936016;28;102589;-75
2022/02/21 03:31:16;;;;;;;;;1.00;0.00;;;;;14.24;43.72;96842.66;4932433;28;105002;-75
2022/02/21 03:33:43;;;;;;;;;1.00;0.00;;;;;14.24;43.37;96831.78;4932090;28;109070;-76
2022/02/21 03:36:11;;;;;;;;;0.25;0.00;;;;;14.24;43.39;96831.78;4927941;28;103902;-75
2022/02/21 03:38:38;;;;;;;;;0.00;0.00;;;;;14.25;43.68;96828.81;4924635;28;102484;-75
2022/02/21 03:41:05;;;;;;;;;1.00;0.25;;;;;14.26;43.60;96830.44;4924472;28;102678;-76
2022/02/21 03:43:32;;;;;;;;;0.00;0.00;;;;;14.26;43.29;96826.91;4930602;28;104184;-76
2022/02/21 03:45:59;;;;;;;;;1.00;0.50;;;;;14.26;43.60;96819.56;4920866;28;102206;-75
2022/02/21 03:48:26;;;;;;;;;0.50;0.00;;;;;14.28;43.62;96809.22;4931667;28;102636;-75
2022/02/21 03:50:53;;;;;;;;;0.00;0.00;;;;;14.27;43.53;96804.88;4935188;28;103753;-75
2022/02/21 03:53:20;;;;;;;;;0.00;0.00;;;;;14.26;43.95;96800.53;4935952;28;105619;-75
2022/02/21 03:55:48;;;;;;;;;0.00;0.00;;;;;14.25;43.45;96790.75;4928066;28;102925;-75
2022/02/21 03:58:15;;;;;;;;;0.00;0.00;;;;;14.27;43.53;96777.69;4943264;28;102703;-76
2022/02/21 04:00:42;;;;;;;;;0.00;0.00;;;;;14.26;43.52;96772.53;4935964;28;102657;-75
2022/02/21 04:03:09;;;;;;;;;0.00;0.00;;;;;14.26;43.59;96765.19;4924975;28;104163;-75
2022/02/21 04:05:36;;;;;;;;;0.00;0.00;;;;;14.26;43.68;96757.03;4939813;28;102437;-75
2022/02/21 04:08:03;;;;;;;;;0.00;0.00;;;;;14.28;43.70;96754.03;4925802;28;102470;-75
2022/02/21 04:10:30;;;;;;;;;0.00;0.00;;;;;14.27;43.74;96745.06;4936515;28;104070;-75
2022/02/21 04:12:57;;;;;;;;;0.00;0.00;;;;;14.29;43.04;96744.78;4943027;28;104136;-75
2022/02/21 04:15:24;;;;;;;;;0.00;0.00;;;;;14.26;43.75;96718.97;4935614;28;102677;-75
2022/02/21 04:17:52;;;;;;;;;0.00;0.00;;;;;14.27;43.95;96723.31;4937325;28;102476;-76
2022/02/21 04:20:20;;;;;;;;;0.00;0.00;;;;;14.27;43.86;96711.66;4939701;28;102398;-75
2022/02/21 04:22:47;;;;;;;;;0.00;0.00;;;;;14.25;43.20;96714.63;4936619;28;104148;-76
2022/02/21 04:25:14;;;;;;;;;0.00;0.00;;;;;14.25;43.82;96703.75;4935479;28;102936;-75
2022/02/21 04:27:51;;;;;;;;;1.00;0.00;;;;;14.24;43.21;96702.09;4945618;28;102164;-76
2022/02/21 04:30:20;;;;;;;;;1.00;1.00;;;;;14.23;43.83;96692.31;4936711;28;103858;-75
2022/02/21 04:32:47;;;;;;;;;0.25;0.25;;;;;14.23;44.00;96688.78;4934784;28;103909;-76
2022/02/21 04:35:15;;;;;;;;;0.00;0.00;;;;;14.20;43.57;96673.84;4941666;28;102429;-75
2022/02/21 04:37:42;;;;;;;;;0.00;0.00;;;;;14.20;43.48;96670.31;4934302;28;102440;-75
2022/02/21 04:40:11;;;;;;;;;0.00;0.00;;;;;14.18;43.61;96662.41;4938124;28;102623;-75
2022/02/21 04:42:38;;;;;;;;;0.00;0.00;;;;;14.19;43.99;96653.16;4934492;28;103340;-75
2022/02/21 04:45:06;;;;;;;;;0.00;0.00;;;;;14.20;43.44;96645.84;4936931;28;102351;-75
2022/02/21 04:47:33;;;;;;;;;1.00;0.00;;;;;14.19;43.28;96636.88;4937913;28;108998;-75
2022/02/21 04:50:00;;;;;;;;;0.00;0.00;;;;;14.18;43.91;96616.19;4936116;28;102720;-76
2022/02/21 04:52:30;;;;;;;;;0.00;0.00;;;;;14.19;43.30;96608.88;4930643;28;104283;-76
2022/02/21 04:54:57;;;;;;;;;0.00;0.00;;;;;14.19;43.88;96606.16;4933058;28;102645;-75
2022/02/21 04:57:24;;;;;;;;;0.00;0.00;;;;;14.19;44.05;96608.88;4943412;28;104688;-75
2022/02/21 04:59:51;;;;;;;;;0.00;0.00;;;;;14.18;43.82;96593.66;4932428;28;102397;-75
2022/02/21 05:02:18;;;;;;;;;1.75;0.00;;;;;14.18;43.50;96597.16;4920365;28;104465;-75
2022/02/21 05:04:45;;;;;;;;;0.75;0.00;;;;;14.17;44.03;96597.47;4938742;28;102161;-76
2022/02/21 05:07:13;;;;;;;;;0.00;0.00;;;;;14.17;43.87;96592.84;4917949;28;102793;-75
2022/02/21 05:09:41;;;;;;;;;0.00;0.00;;;;;14.16;43.38;96595.84;4911380;28;102718;-76
2022/02/21 05:12:08;;;;;;;;;0.50;0.50;;;;;14.16;43.93;96601.25;4930478;28;104260;-76
2022/02/21 05:14:35;;;;;;;;;0.00;0.00;;;;;14.17;44.12;96605.63;4934108;28;102447;-75
2022/02/21 05:17:04;;;;;;;;;0.00;0.00;;;;;14.16;43.92;96607.53;4934843;28;102345;-76
2022/02/21 05:19:31;;;;;;;;;0.00;0.00;;;;;14.16;43.60;96606.69;4933433;28;102772;-75
2022/02/21 05:21:58;;;;;;;;;0.00;0.00;;;;;14.13;44.35;96596.38;4928421;28;104215;-76
2022/02/21 05:24:25;;;;;;;;;1.00;0.00;;;;;14.15;44.15;96596.91;4931859;28;102287;-75
2022/02/21 05:26:53;;;;;;;;;0.00;0.00;;;;;14.16;43.88;96604.81;4938051;28;102323;-75
2022/02/21 05:29:20;;;;;;;;;0.00;0.00;;;;;14.15;43.80;96596.91;4908455;28;103308;-75
2022/02/21 05:31:47;;;;;;;;;0.00;0.00;;;;;14.15;44.03;96586.84;4935607;28;103964;-75
2022/02/21 05:34:14;;;;;;;;;0.00;0.00;;;;;14.18;43.63;96599.09;4934239;28;102586;-76
2022/02/21 05:36:42;;;;;;;;;0.00;0.00;;;;;14.18;43.74;96582.78;4935013;28;102325;-75
2022/02/21 05:39:09;;;;;;;;;0.00;0.00;;;;;14.18;43.47;96577.38;4935978;28;104573;-75
2022/02/21 05:41:36;;;;;;;;;0.00;0.00;;;;;14.17;43.55;96581.97;4932231;28;103607;-75
2022/02/21 05:44:03;;;;;;;;;0.00;0.00;;;;;14.16;43.50;96565.94;4930790;28;102681;-75
2022/02/21 05:46:32;;;;;;;;;0.00;0.00;;;;;14.17;44.08;96565.66;4917053;28;102893;-75
2022/02/21 05:48:59;;;;;;;;;0.00;0.00;;;;;14.17;44.09;96571.09;4908145;28;104067;-75
2022/02/21 05:51:26;;;;;;;;;0.00;0.00;;;;;14.17;43.72;96560.22;4925874;28;106051;-75
2022/02/21 05:53:53;;;;;;;;;0.00;0.00;;;;;14.17;43.78;96565.66;4945934;28;102589;-75
2022/02/21 05:56:20;;;;;;;;;0.00;0.00;;;;;14.17;44.16;96568.38;4951730;28;102593;-75
2022/02/21 05:58:47;;;;;;;;;0.00;0.00;;;;;14.15;43.33;96562.41;4941621;28;102395;-75
2022/02/21 06:01:14;;;;;;;;;0.00;0.00;;;;;14.16;43.69;96568.66;4944861;28;104028;-75
2022/02/21 06:03:42;;;;;;;;;0.00;0.00;;;;;14.15;44.16;96565.13;4952847;28;105492;-75
2022/02/21 06:06:09;;;;;;;;;0.00;0.00;;;;;14.13;43.53;96564.59;4947658;28;102538;-75
2022/02/21 06:08:36;;;;;;;;;0.00;0.00;;;;;14.14;43.83;96578.97;4951017;28;103742;-75
2022/02/21 06:11:03;;;;;;;;;0.00;0.00;;;;;14.13;43.45;96564.59;4934286;28;104081;-75
2022/02/21 06:13:31;;;;;;;;;0.00;0.00;;;;;14.13;43.98;96572.75;4948870;28;103504;-75
2022/02/21 06:15:58;;;;;;;;;0.50;0.00;;;;;14.14;43.77;96563.47;4939220;28;102230;-75
2022/02/21 06:18:25;;;;;;;;;0.00;0.00;;;;;14.14;43.30;96577.06;4948152;28;102787;-75
2022/02/21 06:20:52;;;;;;;;;0.00;0.00;;;;;14.13;43.67;96570.03;4953055;28;104339;-75
2022/02/21 06:23:19;;;;;;;;;0.00;0.00;;;;;14.12;43.58;96571.09;4944001;28;102500;-75
2022/02/21 06:25:47;;;;;;;;;0.00;0.00;;;;;14.13;44.31;96570.03;4930356;28;104309;-75
2022/02/21 06:28:14;;;;;;;;;0.00;0.00;;;;;14.13;43.64;96575.47;4936598;28;102641;-75
2022/02/21 06:30:41;;;;;;;;;0.00;0.00;;;;;14.13;44.10;96580.91;4932507;28;104275;-75
2022/02/21 06:33:08;;;;;;;;;0.00;0.00;;;;;14.13;43.76;96570.03;4949708;28;102559;-75
2022/02/21 06:35:35;;;;;;;;;0.00;0.00;;;;;14.13;44.20;96580.91;4953627;28;102108;-75
2022/02/21 06:38:04;;;;;;;;;0.00;0.00;;;;;14.14;44.16;96576.25;4938059;28;102454;-75
2022/02/21 06:40:31;;;;;;;;;0.00;0.00;;;;;14.13;44.25;96569.22;4932055;28;104225;-75
2022/02/21 06:42:59;;;;;;;;;0.00;0.00;;;;;14.12;44.18;96571.09;4953419;28;102347;-75
2022/02/21 06:45:27;;;;;;;;;0.50;0.50;;;;;14.12;43.77;96573.00;4916877;28;102619;-75
2022/02/21 06:47:54;;;;;;;;;0.00;0.00;;;;;14.13;43.50;96580.06;4943468;28;102776;-76
2022/02/21 06:50:22;;;;;;;;;0.00;0.00;;;;;14.11;44.01;96580.34;4941083;28;104402;-75
2022/02/21 06:52:51;;;;;;;;;0.00;0.00;;;;;14.11;44.13;96577.63;4935320;28;102880;-76
2022/02/21 06:55:21;;;;;;;;;0.00;0.00;;;;;14.12;44.16;96578.44;4939311;28;102293;-76
2022/02/21 06:57:48;;;;;;;;;1.00;0.00;;;;;14.09;43.82;96579.81;4950644;28;102801;-76
2022/02/21 07:00:16;;;;;;;;;0.00;0.00;;;;;14.10;43.51;96589.56;4939570;28;104464;-75
2022/02/21 07:02:43;;;;;;;;;1.00;0.00;;;;;14.08;44.16;96575.47;4918200;28;104612;-75
2022/02/21 07:05:10;;;;;;;;;0.00;0.00;;;;;14.09;43.63;96566.22;4945308;28;102227;-75
2022/02/21 07:07:37;;;;;;;;;1.00;0.50;;;;;14.08;43.96;96567.31;4932893;28;102608;-75
2022/02/21 07:10:05;;;;;;;;;0.00;0.00;;;;;14.08;43.65;96567.31;4941106;28;104027;-75
2022/02/21 07:12:32;;;;;;;;;0.25;0.00;;;;;14.10;43.65;96559.69;4934159;28;102739;-75
2022/02/21 07:14:59;;;;;;;;;1.00;0.00;;;;;14.10;43.76;96554.25;4943326;28;102180;-75
2022/02/21 07:17:26;;;;;;;;;0.00;0.00;;;;;14.11;43.35;96561.31;4941452;28;102673;-76
2022/02/21 07:19:55;;;;;;;;;0.00;0.00;;;;;14.09;43.64;96558.06;4955370;28;104247;-75
2022/02/21 07:22:24;;;;;;;;;0.00;0.00;;;;;14.10;43.60;96548.00;4945615;28;104042;-75
2022/02/21 07:24:51;;;;;;;;;0.00;0.00;;;;;14.10;43.30;96548.81;4928644;28;102653;-75
2022/02/21 07:27:18;;;;;;;;;0.00;0.00;;;;;14.10;43.54;96553.44;4954840;28;102596;-75
2022/02/21 07:29:45;;;;;;;;;0.00;0.00;;;;;14.09;43.50;96547.22;4955993;28;104001;-75
2022/02/21 07:32:12;;;;;;;;;0.00;0.00;;;;;14.08;43.80;96542.84;4942749;28;102453;-75
2022/02/21 07:34:38;;;;;;;;;0.00;0.00;;;;;14.09;43.74;96536.34;4952319;28;102682;-75
2022/02/21 07:37:07;;;;;;;;;0.00;0.00;;;;;14.08;43.36;96526.53;4950532;28;102563;-75
2022/02/21 07:39:34;;;;;;;;;0.00;0.00;;;;;14.08;43.53;96525.72;4927739;28;103992;-75
2022/02/21 07:42:01;;;;;;;;;0.00;0.00;;;;;14.09;43.41;96524.66;4929759;28;102794;-75
2022/02/21 07:44:28;;;;;;;;;0.00;0.00;;;;;14.09;44.11;96519.22;4959764;28;102359;-75
2022/02/21 07:46:55;;;;;;;;;1.00;0.00;;;;;14.08;43.72;96518.38;4944697;28;102654;-75
2022/02/21 07:49:23;;;;;;;;;0.00;0.00;;;;;14.09;44.38;96509.16;4953966;28;108911;-76
2022/02/21 07:51:50;;;;;;;;;0.00;0.00;;;;;14.08;43.97;96512.97;4935918;28;103528;-75
2022/02/21 07:54:18;;;;;;;;;1.00;0.00;;;;;14.10;43.91;96516.19;4944875;28;102552;-75
2022/02/21 07:57:06;;;;;;;;;0.00;0.00;;;;;14.11;43.55;96514.28;4930816;28;103221;-75
2022/02/21 07:59:33;;;;;;;;;0.00;0.00;;;;;14.10;43.54;96510.75;4908605;28;104494;-75
2022/02/21 08:02:00;;;;;;;;;0.00;0.00;;;;;14.10;44.06;96515.38;4940298;28;102400;-75
2022/02/21 08:04:27;;;;;;;;;0.50;0.50;;;;;14.10;43.96;96505.31;4952175;28;102570;-75
2022/02/21 08:06:54;;;;;;;;;0.00;0.00;;;;;14.10;43.85;96499.06;4951726;28;102427;-76
2022/02/21 08:09:21;;;;;;;;;0.00;0.00;;;;;14.09;43.55;96500.19;4945577;28;104018;-75
2022/02/21 08:11:48;;;;;;;;;0.00;0.00;;;;;14.10;43.91;96499.88;4924019;28;110232;-75
2022/02/21 08:14:15;;;;;;;;;0.00;0.00;;;;;14.09;44.31;96476.53;4913381;28;104631;-75
2022/02/21 08:16:42;;;;;;;;;0.00;0.00;;;;;14.08;44.11;96466.75;4943310;28;102614;-76
2022/02/21 08:19:11;;;;;;;;;0.00;0.00;;;;;14.09;43.60;96465.69;4947431;28;104016;-75
2022/02/21 08:21:38;;;;;;;;;0.00;0.00;;;;;14.10;44.31;96453.69;4951362;28;102719;-75
2022/02/21 08:24:06;;;;;;;;;0.00;0.00;;;;;14.10;43.56;96447.44;4941755;28;104991;-75
2022/02/21 08:26:34;;;;;;;;;1.00;0.00;;;;;14.08;44.16;96453.16;4952444;28;102867;-75
2022/02/21 08:29:01;;;;;;;;;1.00;0.00;;;;;14.10;44.06;96450.16;4948199;28;104342;-75
2022/02/21 08:31:29;;;;;;;;;0.00;0.00;;;;;14.10;43.26;96450.97;4955359;28;102014;-75
2022/02/21 08:33:56;;;;;;;;;1.00;0.00;;;;;14.11;43.55;96447.16;4957184;28;102565;-75
2022/02/21 08:36:25;;;;;;;;;0.00;0.00;;;;;14.12;43.96;96439.84;4953290;28;102753;-75
2022/02/21 08:38:52;;;;;;;;;0.00;0.00;;;;;14.12;43.64;96443.38;4949015;28;104058;-75
2022/02/21 08:41:20;;;;;;;;;1.00;0.00;;;;;14.14;44.02;96443.06;4934452;28;102383;-75
2022/02/21 08:43:47;;;;;;;;;0.00;0.00;;;;;14.13;43.93;96450.44;4928951;28;110624;-75
2022/02/21 08:46:14;;;;;;;;;0.00;0.00;;;;;14.13;43.33;96439.56;4946701;28;102629;-75
2022/02/21 08:49:02;;;;;;;;;0.50;0.00;;;;;14.13;44.28;96434.13;4931859;28;110069;-75
2022/02/21 08:51:29;;;;;;;;;0.00;0.00;;;;;14.13;43.29;96439.56;4923133;28;103493;-75
2022/02/21 08:53:57;;;;;;;;;0.00;0.00;;;;;14.14;43.30;96445.78;4935322;28;106105;-75
2022/02/21 08:56:32;;;;;;;;;0.00;0.00;;;;;14.13;44.24;96442.28;4960014;28;102609;-75
2022/02/21 08:58:59;;;;;;;;;0.00;0.00;;;;;14.13;43.29;96447.72;4944796;28;108663;-75
2022/02/21 09:01:26;;;;;;;;;0.00;0.00;;;;;14.14;43.72;96449.31;4916005;28;102553;-75
2022/02/21 09:03:53;;;;;;;;;0.00;0.00;;;;;14.13;43.30;96442.28;4945372;28;102478;-75
2022/02/21 09:06:20;;;;;;;;;0.25;0.00;;;;;14.14;43.95;96445.78;4934582;28;102658;-75
2022/02/21 09:08:47;;;;;;;;;1.00;0.00;;;;;14.14;44.23;96452.03;4941079;28;112966;-75
2022/02/21 09:11:17;;;;;;;;;0.00;0.00;;;;;14.13;43.86;96445.00;4939330;28;102460;-75
2022/02/21 09:13:44;;;;;;;;;0.00;0.00;;;;;14.13;44.21;96450.44;4947516;28;102118;-75
2022/02/21 09:16:11;;;;;;;;;0.00;0.00;;;;;14.15;43.42;96452.88;4935456;28;103512;-75
2022/02/21 09:18:38;;;;;;;;;0.00;0.00;;;;;14.15;43.19;96452.88;4933169;28;110247;-75
2022/02/21 09:21:05;;;;;;;;;0.00;0.00;;;;;14.16;43.64;96449.88;4949728;28;102680;-75
2022/02/21 09:23:32;;;;;;;;;0.00;0.00;;;;;14.15;43.43;96448.25;4945801;28;103518;-75
2022/02/21 09:25:59;;;;;;;;;0.00;0.00;;;;;14.15;43.50;96448.25;4941826;28;102330;-75
2022/02/21 09:28:26;;;;;;;;;0.00;0.00;;;;;14.17;43.80;96442.53;4947029;28;107144;-75
2022/02/21 09:30:55;;;;;;;;;0.00;0.00;;;;;14.16;43.77;96441.72;4939603;28;102225;-75
2022/02/21 09:33:23;;;;;;;;;0.75;0.00;;;;;14.16;43.99;96439.00;4952825;28;102393;-75
2022/02/21 09:35:50;;;;;;;;;0.00;0.00;;;;;14.17;43.46;96445.25;4918232;28;103361;-75
2022/02/21 09:38:18;;;;;;;;;0.00;0.00;;;;;14.17;44.06;96429.78;4947321;28;105917;-75
2022/02/21 09:40:46;;;;;;;;;0.00;0.00;;;;;14.17;43.95;96454.22;4959098;28;103214;-75
2022/02/21 09:43:13;;;;;;;;;0.00;0.00;;;;;14.17;43.33;96462.38;4947527;28;102544;-75
2022/02/21 09:45:43;;;;;;;;;0.00;0.00;;;;;14.17;43.31;96470.53;4952461;28;102577;-75
2022/02/21 09:48:14;;;;;;;;;0.00;0.00;;;;;14.17;43.92;96486.84;4941743;28;103752;-76
2022/02/21 09:50:48;;;;;;;;;0.75;0.00;;;;;14.17;43.45;96484.13;4933754;28;103323;-75
2022/02/21 09:53:15;;;;;;;;;0.00;0.00;;;;;14.17;43.75;96484.13;4938150;28;102558;-75
2022/02/21 09:55:42;;;;;;;;;0.00;0.00;;;;;14.16;43.37;96487.94;4948770;28;103100;-75
2022/02/21 09:58:09;;;;;;;;;0.00;0.00;;;;;14.17;43.83;96507.78;4940362;28;111226;-75
2022/02/21 10:00:36;;;;;;;;;0.00;0.00;;;;;14.18;43.72;96510.19;4931974;28;102450;-75
2022/02/21 10:03:04;;;;;;;;;0.00;0.00;;;;;14.18;43.87;96509.41;4950710;28;102538;-75
2022/02/21 10:05:32;;;;;;;;;0.00;0.00;;;;;14.19;43.27;96508.28;4933321;28;104195;-75
2022/02/21 10:08:00;;;;;;;;;0.00;0.00;;;;;14.18;43.90;96534.66;4945821;28;104412;-75
2022/02/21 10:10:30;;;;;;;;;0.00;0.00;;;;;14.19;43.56;96571.63;4933388;28;102664;-75
2022/02/21 10:12:58;;;;;;;;;0.00;0.00;;;;;14.20;44.11;96605.06;4941223;28;103045;-75
2022/02/21 10:15:27;;;;;;;;;0.00;0.00;;;;;14.20;43.91;96613.22;4952900;28;107903;-75
2022/02/21 10:18:15;;;;;;;;;0.00;0.00;;;;;14.18;44.05;96624.34;4934226;28;104084;-75
2022/02/21 10:20:52;;;;;;;;;0.75;0.00;;;;;14.19;43.97;96617.03;4930938;28;102751;-75
2022/02/21 10:23:18;;;;;;;;;0.00;0.00;;;;;14.19;43.96;96596.09;4928512;28;103538;-75
2022/02/21 10:26:06;;;;;;;;;0.50;0.00;;;;;14.18;43.41;96604.53;4937964;28;103855;-75
2022/02/21 10:28:35;;;;;;;;;0.00;0.00;;;;;14.16;43.38;96602.09;4951646;28;109153;-76
2022/02/21 10:31:19;;;;;;;;;0.00;0.00;;;;;14.15;43.34;96605.06;4943108;28;103778;-75
2022/02/21 10:34:04;;;;;;;;;1.25;0.00;;;;;14.15;43.26;96605.06;4927647;28;102712;-75
2022/02/21 10:36:38;;;;;;;;;0.00;0.00;;;;;14.14;43.65;96609.69;4954317;28;102611;-75
2022/02/21 10:39:13;;;;;;;;;0.00;0.00;;;;;14.14;43.27;96598.81;4944720;28;107815;-75
2022/02/21 10:41:48;;;;;;;;;0.00;0.00;;;;;14.14;43.36;96606.16;4912585;28;102523;-75
2022/02/21 10:44:20;;;;;;;;;0.00;0.00;;;;;14.12;43.96;96592.84;4948763;28;102142;-75
2022/02/21 10:47:12;;;;;;;;;0.75;0.00;;;;;14.14;44.04;96609.69;4925413;28;102510;-75
2022/02/21 10:49:56;;;;;;;;;0.25;0.00;;;;;14.13;43.47;96612.69;4954925;28;108920;-75
2022/02/21 10:52:26;;;;;;;;;0.00;0.00;;;;;14.12;44.12;96601.00;4932778;28;102516;-75
2022/02/21 10:54:53;;;;;;;;;0.00;0.00;;;;;14.13;43.84;96618.94;4939723;28;102197;-75
2022/02/21 10:57:23;;;;;;;;;0.00;0.00;;;;;14.11;43.46;96615.66;4951125;28;102499;-75
2022/02/21 10:59:51;;;;;;;;;0.00;0.00;;;;;14.13;43.14;96608.06;4940287;28;104327;-75
2022/02/21 11:02:19;;;;;;;;;0.00;0.00;;;;;14.11;43.68;96621.09;4960378;28;102559;-75
2022/02/21 11:04:46;;;;;;;;;0.75;0.75;;;;;14.11;43.62;96626.53;4947792;28;102543;-75
2022/02/21 11:07:13;;;;;;;;;0.00;0.00;;;;;14.12;43.99;96632.78;4938338;28;102982;-75
2022/02/21 11:09:41;;;;;;;;;0.00;0.00;;;;;14.11;43.45;96636.59;4945878;28;103402;-75
2022/02/21 11:12:09;;;;;;;;;0.00;0.00;;;;;14.11;43.90;96637.41;4938829;28;104955;-75
2022/02/21 11:14:40;;;;;;;;;0.00;0.00;;;;;14.11;43.82;96637.41;4940549;28;109547;-75
2022/02/21 11:17:09;;;;;;;;;0.00;0.00;;;;;14.12;44.03;96630.09;4942479;28;102784;-75
2022/02/21 11:19:36;;;;;;;;;0.00;0.00;;;;;14.12;43.53;96636.34;4953080;28;108969;-75
2022/02/21 11:22:04;;;;;;;;;0.00;0.00;;;;;14.10;44.09;96638.50;4930702;28;102433;-75
2022/02/21 11:24:33;;;;;;;;;0.00;0.00;;;;;14.11;43.92;96636.59;4917551;28;102607;-75
2022/02/21 11:27:15;;;;;;;;;0.00;0.00;;;;;14.11;43.71;96645.56;4930609;28;102791;-75
2022/02/21 11:29:53;;;;;;;;;0.00;0.00;;;;;14.11;43.88;96631.16;4953507;28;108822;-75